sensor_id;sensor_type;location;lat;lon;timestamp;P1;durP1;ratioP1;P2;durP2;ratioP2
6255;SDS011;3161;48.794;9.784;2023-10-13T00:01:57;8.97;;;5.10;;
6255;SDS011;3161;48.794;9.784;2023-10-13T00:04:27;10.03;;;5.13;;
6255;SDS011;3161;48.794;9.784;2023-10-13T00:06:57;10.30;;;5.67;;
6255;SDS011;3161;48.794;9.784;2023-10-13T00:09:26;7.57;;;4.60;;
6255;SDS011;3161;48.794;9.784;2023-10-13T00:12:04;12.90;;;4.60;;
6255;SDS011;3161;48.794;9.784;2023-10-13T00:14:37;7.20;;;4.57;;
6255;SDS011;3161;48.794;9.784;2023-10-13T00:17:05;8.67;;;4.53;;
6255;SDS011;3161;48.794;9.784;2023-10-13T00:19:35;8.77;;;4.50;;
6255;SDS011;3161;48.794;9.784;2023-10-13T00:22:07;4.60;;;4.00;;
6255;SDS011;3161;48.794;9.784;2023-10-13T00:24:41;9.17;;;4.83;;
6255;SDS011;3161;48.794;9.784;2023-10-13T00:27:16;5.93;;;3.87;;
6255;SDS011;3161;48.794;9.784;2023-10-13T00:30:03;6.60;;;4.37;;
6255;SDS011;3161;48.794;9.784;2023-10-13T00:32:51;12.50;;;4.60;;
6255;SDS011;3161;48.794;9.784;2023-10-13T00:35:21;6.23;;;4.47;;
6255;SDS011;3161;48.794;9.784;2023-10-13T00:37:58;7.93;;;4.60;;
6255;SDS011;3161;48.794;9.784;2023-10-13T00:40:27;8.03;;;4.97;;
6255;SDS011;3161;48.794;9.784;2023-10-13T00:42:59;10.03;;;4.77;;
6255;SDS011;3161;48.794;9.784;2023-10-13T00:45:49;9.23;;;4.67;;
6255;SDS011;3161;48.794;9.784;2023-10-13T00:48:26;8.03;;;4.77;;
6255;SDS011;3161;48.794;9.784;2023-10-13T00:50:57;8.73;;;4.37;;
6255;SDS011;3161;48.794;9.784;2023-10-13T00:53:27;11.67;;;4.17;;
6255;SDS011;3161;48.794;9.784;2023-10-13T00:55:56;11.60;;;5.17;;
6255;SDS011;3161;48.794;9.784;2023-10-13T00:58:23;5.80;;;4.17;;
6255;SDS011;3161;48.794;9.784;2023-10-13T01:00:53;7.30;;;4.40;;
6255;SDS011;3161;48.794;9.784;2023-10-13T01:03:25;6.50;;;3.53;;
6255;SDS011;3161;48.794;9.784;2023-10-13T01:05:56;4.97;;;3.63;;
6255;SDS011;3161;48.794;9.784;2023-10-13T01:08:31;7.17;;;4.30;;
6255;SDS011;3161;48.794;9.784;2023-10-13T01:11:03;6.47;;;4.50;;
6255;SDS011;3161;48.794;9.784;2023-10-13T01:13:33;6.40;;;3.47;;
6255;SDS011;3161;48.794;9.784;2023-10-13T01:16:04;5.70;;;3.50;;
6255;SDS011;3161;48.794;9.784;2023-10-13T01:18:33;7.57;;;3.63;;
6255;SDS011;3161;48.794;9.784;2023-10-13T01:21:05;10.90;;;4.87;;
6255;SDS011;3161;48.794;9.784;2023-10-13T01:23:34;5.57;;;3.70;;
6255;SDS011;3161;48.794;9.784;2023-10-13T01:26:04;6.67;;;4.00;;
6255;SDS011;3161;48.794;9.784;2023-10-13T01:28:31;6.03;;;4.23;;
6255;SDS011;3161;48.794;9.784;2023-10-13T01:31:01;5.73;;;4.03;;
6255;SDS011;3161;48.794;9.784;2023-10-13T01:33:29;7.17;;;4.23;;
6255;SDS011;3161;48.794;9.784;2023-10-13T01:35:58;9.33;;;4.33;;
6255;SDS011;3161;48.794;9.784;2023-10-13T01:38:27;6.60;;;4.00;;
6255;SDS011;3161;48.794;9.784;2023-10-13T01:40:56;9.27;;;4.17;;
6255;SDS011;3161;48.794;9.784;2023-10-13T01:43:24;5.63;;;4.33;;
6255;SDS011;3161;48.794;9.784;2023-10-13T01:45:52;7.67;;;3.90;;
6255;SDS011;3161;48.794;9.784;2023-10-13T01:48:20;6.77;;;3.30;;
6255;SDS011;3161;48.794;9.784;2023-10-13T01:50:48;5.97;;;3.87;;
6255;SDS011;3161;48.794;9.784;2023-10-13T01:53:17;5.97;;;3.70;;
6255;SDS011;3161;48.794;9.784;2023-10-13T01:55:45;3.90;;;3.07;;
6255;SDS011;3161;48.794;9.784;2023-10-13T01:58:13;8.65;;;4.25;;
6255;SDS011;3161;48.794;9.784;2023-10-13T02:00:42;5.27;;;3.10;;
6255;SDS011;3161;48.794;9.784;2023-10-13T02:03:11;10.07;;;3.33;;
6255;SDS011;3161;48.794;9.784;2023-10-13T02:05:44;6.07;;;3.17;;
6255;SDS011;3161;48.794;9.784;2023-10-13T02:08:17;6.37;;;3.70;;
6255;SDS011;3161;48.794;9.784;2023-10-13T02:10:58;9.93;;;3.60;;
6255;SDS011;3161;48.794;9.784;2023-10-13T02:13:23;4.47;;;3.30;;
6255;SDS011;3161;48.794;9.784;2023-10-13T02:15:55;4.93;;;3.90;;
6255;SDS011;3161;48.794;9.784;2023-10-13T02:18:23;5.20;;;3.60;;
6255;SDS011;3161;48.794;9.784;2023-10-13T02:20:56;14.03;;;4.37;;
6255;SDS011;3161;48.794;9.784;2023-10-13T02:23:27;6.53;;;3.50;;
6255;SDS011;3161;48.794;9.784;2023-10-13T02:25:55;5.77;;;3.80;;
6255;SDS011;3161;48.794;9.784;2023-10-13T02:28:30;7.17;;;3.43;;
6255;SDS011;3161;48.794;9.784;2023-10-13T02:31:03;5.37;;;3.23;;
6255;SDS011;3161;48.794;9.784;2023-10-13T02:33:32;6.33;;;3.43;;
6255;SDS011;3161;48.794;9.784;2023-10-13T02:36:01;4.87;;;3.47;;
6255;SDS011;3161;48.794;9.784;2023-10-13T02:38:31;8.40;;;3.70;;
6255;SDS011;3161;48.794;9.784;2023-10-13T02:41:01;5.43;;;3.20;;
6255;SDS011;3161;48.794;9.784;2023-10-13T02:43:33;9.20;;;4.43;;
6255;SDS011;3161;48.794;9.784;2023-10-13T02:46:04;8.53;;;3.77;;
6255;SDS011;3161;48.794;9.784;2023-10-13T02:48:32;5.57;;;3.70;;
6255;SDS011;3161;48.794;9.784;2023-10-13T02:51:06;6.37;;;3.77;;
6255;SDS011;3161;48.794;9.784;2023-10-13T02:53:36;6.70;;;3.70;;
6255;SDS011;3161;48.794;9.784;2023-10-13T02:56:04;8.97;;;4.13;;
6255;SDS011;3161;48.794;9.784;2023-10-13T02:58:32;4.40;;;3.60;;
6255;SDS011;3161;48.794;9.784;2023-10-13T03:01:07;3.90;;;3.40;;
6255;SDS011;3161;48.794;9.784;2023-10-13T03:03:48;5.67;;;3.67;;
6255;SDS011;3161;48.794;9.784;2023-10-13T03:06:18;6.57;;;4.67;;
6255;SDS011;3161;48.794;9.784;2023-10-13T03:08:48;5.77;;;3.30;;
6255;SDS011;3161;48.794;9.784;2023-10-13T03:11:16;9.53;;;4.20;;
6255;SDS011;3161;48.794;9.784;2023-10-13T03:13:49;12.70;;;3.87;;
6255;SDS011;3161;48.794;9.784;2023-10-13T03:16:18;6.23;;;3.70;;
6255;SDS011;3161;48.794;9.784;2023-10-13T03:18:46;9.93;;;4.53;;
6255;SDS011;3161;48.794;9.784;2023-10-13T03:21:22;10.17;;;3.87;;
6255;SDS011;3161;48.794;9.784;2023-10-13T03:23:57;6.90;;;4.57;;
6255;SDS011;3161;48.794;9.784;2023-10-13T03:26:33;8.37;;;4.30;;
6255;SDS011;3161;48.794;9.784;2023-10-13T03:29:05;4.63;;;3.50;;
6255;SDS011;3161;48.794;9.784;2023-10-13T03:31:34;6.27;;;3.63;;
6255;SDS011;3161;48.794;9.784;2023-10-13T03:34:07;4.77;;;3.60;;
6255;SDS011;3161;48.794;9.784;2023-10-13T03:36:34;10.00;;;3.60;;
6255;SDS011;3161;48.794;9.784;2023-10-13T03:39:11;4.77;;;3.70;;
6255;SDS011;3161;48.794;9.784;2023-10-13T03:41:40;10.13;;;3.53;;
6255;SDS011;3161;48.794;9.784;2023-10-13T03:44:09;5.20;;;3.97;;
6255;SDS011;3161;48.794;9.784;2023-10-13T03:46:41;6.57;;;4.17;;
6255;SDS011;3161;48.794;9.784;2023-10-13T03:49:08;6.00;;;4.03;;
6255;SDS011;3161;48.794;9.784;2023-10-13T03:51:38;8.80;;;4.30;;
6255;SDS011;3161;48.794;9.784;2023-10-13T03:54:06;7.73;;;4.17;;
6255;SDS011;3161;48.794;9.784;2023-10-13T03:59:28;10.50;;;4.57;;
6255;SDS011;3161;48.794;9.784;2023-10-13T04:01:57;7.30;;;4.87;;
6255;SDS011;3161;48.794;9.784;2023-10-13T04:04:25;5.53;;;4.20;;
6255;SDS011;3161;48.794;9.784;2023-10-13T04:06:57;8.03;;;4.80;;
6255;SDS011;3161;48.794;9.784;2023-10-13T04:09:33;9.33;;;4.63;;
6255;SDS011;3161;48.794;9.784;2023-10-13T04:12:07;6.43;;;4.33;;
6255;SDS011;3161;48.794;9.784;2023-10-13T04:14:40;7.60;;;3.93;;
6255;SDS011;3161;48.794;9.784;2023-10-13T04:17:19;7.63;;;4.03;;
6255;SDS011;3161;48.794;9.784;2023-10-13T04:19:51;6.33;;;3.70;;
6255;SDS011;3161;48.794;9.784;2023-10-13T04:22:35;11.87;;;4.60;;
6255;SDS011;3161;48.794;9.784;2023-10-13T04:25:18;7.20;;;4.07;;
6255;SDS011;3161;48.794;9.784;2023-10-13T04:28:04;10.07;;;4.23;;
6255;SDS011;3161;48.794;9.784;2023-10-13T04:30:44;7.33;;;3.67;;
6255;SDS011;3161;48.794;9.784;2023-10-13T04:36:10;5.90;;;4.03;;
6255;SDS011;3161;48.794;9.784;2023-10-13T04:38:56;8.37;;;4.60;;
6255;SDS011;3161;48.794;9.784;2023-10-13T04:41:33;5.07;;;4.07;;
6255;SDS011;3161;48.794;9.784;2023-10-13T04:44:05;11.23;;;4.40;;
6255;SDS011;3161;48.794;9.784;2023-10-13T04:46:51;5.20;;;4.47;;
6255;SDS011;3161;48.794;9.784;2023-10-13T04:49:28;4.50;;;3.67;;
6255;SDS011;3161;48.794;9.784;2023-10-13T04:52:04;7.57;;;4.73;;
6255;SDS011;3161;48.794;9.784;2023-10-13T04:54:37;8.60;;;4.50;;
6255;SDS011;3161;48.794;9.784;2023-10-13T04:57:20;6.97;;;4.57;;
6255;SDS011;3161;48.794;9.784;2023-10-13T04:59:53;10.23;;;4.33;;
6255;SDS011;3161;48.794;9.784;2023-10-13T05:02:31;8.07;;;4.43;;
6255;SDS011;3161;48.794;9.784;2023-10-13T05:05:08;10.50;;;4.10;;
6255;SDS011;3161;48.794;9.784;2023-10-13T05:07:39;8.23;;;4.27;;
6255;SDS011;3161;48.794;9.784;2023-10-13T05:10:25;9.40;;;4.83;;
6255;SDS011;3161;48.794;9.784;2023-10-13T05:13:11;8.10;;;4.43;;
6255;SDS011;3161;48.794;9.784;2023-10-13T05:15:56;8.40;;;4.00;;
6255;SDS011;3161;48.794;9.784;2023-10-13T05:18:42;6.67;;;4.37;;
6255;SDS011;3161;48.794;9.784;2023-10-13T05:21:27;9.20;;;3.73;;
6255;SDS011;3161;48.794;9.784;2023-10-13T05:24:13;7.30;;;4.30;;
6255;SDS011;3161;48.794;9.784;2023-10-13T05:26:59;10.07;;;4.60;;
6255;SDS011;3161;48.794;9.784;2023-10-13T05:29:45;6.87;;;4.40;;
6255;SDS011;3161;48.794;9.784;2023-10-13T05:32:32;13.53;;;4.43;;
6255;SDS011;3161;48.794;9.784;2023-10-13T05:35:19;4.90;;;4.00;;
6255;SDS011;3161;48.794;9.784;2023-10-13T05:38:05;7.27;;;4.13;;
6255;SDS011;3161;48.794;9.784;2023-10-13T05:40:51;9.47;;;3.73;;
6255;SDS011;3161;48.794;9.784;2023-10-13T05:43:38;8.83;;;3.93;;
6255;SDS011;3161;48.794;9.784;2023-10-13T05:46:24;5.17;;;3.80;;
6255;SDS011;3161;48.794;9.784;2023-10-13T05:48:53;10.70;;;4.27;;
6255;SDS011;3161;48.794;9.784;2023-10-13T05:51:26;8.20;;;3.90;;
6255;SDS011;3161;48.794;9.784;2023-10-13T05:53:59;8.30;;;3.77;;
6255;SDS011;3161;48.794;9.784;2023-10-13T05:56:44;9.00;;;4.30;;
6255;SDS011;3161;48.794;9.784;2023-10-13T05:59:34;6.87;;;3.77;;
6255;SDS011;3161;48.794;9.784;2023-10-13T06:02:22;7.27;;;4.57;;
6255;SDS011;3161;48.794;9.784;2023-10-13T06:05:09;6.27;;;3.80;;
6255;SDS011;3161;48.794;9.784;2023-10-13T06:07:56;5.63;;;3.87;;
6255;SDS011;3161;48.794;9.784;2023-10-13T06:10:43;7.67;;;4.50;;
6255;SDS011;3161;48.794;9.784;2023-10-13T06:13:29;6.70;;;4.40;;
6255;SDS011;3161;48.794;9.784;2023-10-13T06:16:15;6.27;;;4.40;;
6255;SDS011;3161;48.794;9.784;2023-10-13T06:19:01;5.60;;;4.00;;
6255;SDS011;3161;48.794;9.784;2023-10-13T06:21:47;11.90;;;4.17;;
6255;SDS011;3161;48.794;9.784;2023-10-13T06:24:33;9.30;;;4.53;;
6255;SDS011;3161;48.794;9.784;2023-10-13T06:27:18;7.77;;;4.30;;
6255;SDS011;3161;48.794;9.784;2023-10-13T06:30:04;19.37;;;4.73;;
6255;SDS011;3161;48.794;9.784;2023-10-13T06:32:33;7.63;;;4.53;;
6255;SDS011;3161;48.794;9.784;2023-10-13T06:35:03;8.17;;;4.83;;
6255;SDS011;3161;48.794;9.784;2023-10-13T06:37:33;8.57;;;4.20;;
6255;SDS011;3161;48.794;9.784;2023-10-13T06:40:08;8.33;;;4.27;;
6255;SDS011;3161;48.794;9.784;2023-10-13T06:42:36;5.97;;;4.20;;
6255;SDS011;3161;48.794;9.784;2023-10-13T06:45:05;6.90;;;4.80;;
6255;SDS011;3161;48.794;9.784;2023-10-13T06:47:38;10.60;;;4.60;;
6255;SDS011;3161;48.794;9.784;2023-10-13T06:50:08;6.97;;;4.33;;
6255;SDS011;3161;48.794;9.784;2023-10-13T06:52:44;10.33;;;3.90;;
6255;SDS011;3161;48.794;9.784;2023-10-13T06:55:16;7.00;;;4.87;;
6255;SDS011;3161;48.794;9.784;2023-10-13T06:57:45;8.40;;;4.27;;
6255;SDS011;3161;48.794;9.784;2023-10-13T07:00:15;6.53;;;4.13;;
6255;SDS011;3161;48.794;9.784;2023-10-13T07:02:47;6.13;;;3.97;;
6255;SDS011;3161;48.794;9.784;2023-10-13T07:05:16;16.30;;;4.90;;
6255;SDS011;3161;48.794;9.784;2023-10-13T07:07:45;6.60;;;3.97;;
6255;SDS011;3161;48.794;9.784;2023-10-13T07:10:13;8.80;;;4.37;;
6255;SDS011;3161;48.794;9.784;2023-10-13T07:12:42;16.90;;;4.23;;
6255;SDS011;3161;48.794;9.784;2023-10-13T07:15:10;8.00;;;4.43;;
6255;SDS011;3161;48.794;9.784;2023-10-13T07:17:39;8.27;;;5.00;;
6255;SDS011;3161;48.794;9.784;2023-10-13T07:20:08;10.37;;;4.70;;
6255;SDS011;3161;48.794;9.784;2023-10-13T07:22:44;6.30;;;4.23;;
6255;SDS011;3161;48.794;9.784;2023-10-13T07:25:13;12.67;;;4.17;;
6255;SDS011;3161;48.794;9.784;2023-10-13T07:27:43;7.03;;;4.27;;
6255;SDS011;3161;48.794;9.784;2023-10-13T07:30:11;12.87;;;4.70;;
6255;SDS011;3161;48.794;9.784;2023-10-13T07:32:41;8.53;;;4.37;;
6255;SDS011;3161;48.794;9.784;2023-10-13T07:35:14;11.13;;;5.30;;
6255;SDS011;3161;48.794;9.784;2023-10-13T07:37:44;9.93;;;5.47;;
6255;SDS011;3161;48.794;9.784;2023-10-13T07:40:14;8.33;;;5.30;;
6255;SDS011;3161;48.794;9.784;2023-10-13T07:42:49;10.97;;;5.77;;
6255;SDS011;3161;48.794;9.784;2023-10-13T07:45:17;6.43;;;4.43;;
6255;SDS011;3161;48.794;9.784;2023-10-13T07:47:46;9.60;;;5.17;;
6255;SDS011;3161;48.794;9.784;2023-10-13T07:50:16;11.80;;;4.80;;
6255;SDS011;3161;48.794;9.784;2023-10-13T07:52:45;12.40;;;5.10;;
6255;SDS011;3161;48.794;9.784;2023-10-13T07:55:31;9.67;;;4.70;;
6255;SDS011;3161;48.794;9.784;2023-10-13T07:57:59;10.40;;;4.93;;
6255;SDS011;3161;48.794;9.784;2023-10-13T08:00:29;9.67;;;4.00;;
6255;SDS011;3161;48.794;9.784;2023-10-13T08:03:13;8.10;;;4.40;;
6255;SDS011;3161;48.794;9.784;2023-10-13T08:05:52;7.37;;;4.43;;
6255;SDS011;3161;48.794;9.784;2023-10-13T08:08:34;5.53;;;3.73;;
6255;SDS011;3161;48.794;9.784;2023-10-13T08:11:05;6.03;;;4.07;;
6255;SDS011;3161;48.794;9.784;2023-10-13T08:13:39;13.90;;;4.63;;
6255;SDS011;3161;48.794;9.784;2023-10-13T08:16:13;8.40;;;4.17;;
6255;SDS011;3161;48.794;9.784;2023-10-13T08:18:51;7.33;;;4.10;;
6255;SDS011;3161;48.794;9.784;2023-10-13T08:21:19;5.17;;;3.57;;
6255;SDS011;3161;48.794;9.784;2023-10-13T08:23:51;18.05;;;3.33;;
6255;SDS011;3161;48.794;9.784;2023-10-13T08:26:23;5.58;;;3.60;;
6255;SDS011;3161;48.794;9.784;2023-10-13T08:29:00;5.17;;;3.50;;
6255;SDS011;3161;48.794;9.784;2023-10-13T08:31:47;12.50;;;4.22;;
6255;SDS011;3161;48.794;9.784;2023-10-13T08:34:32;8.78;;;4.28;;
6255;SDS011;3161;48.794;9.784;2023-10-13T08:37:08;4.90;;;3.52;;
6255;SDS011;3161;48.794;9.784;2023-10-13T08:39:51;5.58;;;3.98;;
6255;SDS011;3161;48.794;9.784;2023-10-13T08:42:37;10.63;;;4.42;;
6255;SDS011;3161;48.794;9.784;2023-10-13T08:45:18;6.78;;;4.20;;
6255;SDS011;3161;48.794;9.784;2023-10-13T08:47:56;7.37;;;4.33;;
6255;SDS011;3161;48.794;9.784;2023-10-13T08:50:34;8.73;;;4.53;;
6255;SDS011;3161;48.794;9.784;2023-10-13T08:55:59;6.40;;;3.85;;
6255;SDS011;3161;48.794;9.784;2023-10-13T08:58:34;10.45;;;4.00;;
6255;SDS011;3161;48.794;9.784;2023-10-13T09:01:23;8.68;;;3.27;;
6255;SDS011;3161;48.794;9.784;2023-10-13T09:04:02;10.35;;;5.37;;
6255;SDS011;3161;48.794;9.784;2023-10-13T09:06:56;5.72;;;3.80;;
6255;SDS011;3161;48.794;9.784;2023-10-13T09:12:21;8.80;;;3.85;;
6255;SDS011;3161;48.794;9.784;2023-10-13T09:14:57;8.73;;;4.28;;
6255;SDS011;3161;48.794;9.784;2023-10-13T09:17:40;5.78;;;3.62;;
6255;SDS011;3161;48.794;9.784;2023-10-13T09:20:11;8.03;;;3.40;;
6255;SDS011;3161;48.794;9.784;2023-10-13T09:22:53;6.67;;;3.87;;
6255;SDS011;3161;48.794;9.784;2023-10-13T09:25:29;4.65;;;3.33;;
6255;SDS011;3161;48.794;9.784;2023-10-13T09:28:10;6.53;;;3.42;;
6255;SDS011;3161;48.794;9.784;2023-10-13T09:30:52;8.35;;;3.62;;
6255;SDS011;3161;48.794;9.784;2023-10-13T09:33:22;6.00;;;3.25;;
6255;SDS011;3161;48.794;9.784;2023-10-13T09:36:02;8.60;;;3.12;;
6255;SDS011;3161;48.794;9.784;2023-10-13T09:38:34;11.83;;;3.67;;
6255;SDS011;3161;48.794;9.784;2023-10-13T09:41:04;12.25;;;2.90;;
6255;SDS011;3161;48.794;9.784;2023-10-13T09:43:44;4.42;;;2.45;;
6255;SDS011;3161;48.794;9.784;2023-10-13T09:46:18;5.03;;;2.25;;
6255;SDS011;3161;48.794;9.784;2023-10-13T09:48:48;8.60;;;2.65;;
6255;SDS011;3161;48.794;9.784;2023-10-13T09:51:18;4.15;;;2.52;;
6255;SDS011;3161;48.794;9.784;2023-10-13T09:53:58;5.50;;;1.55;;
6255;SDS011;3161;48.794;9.784;2023-10-13T09:56:28;6.90;;;2.20;;
6255;SDS011;3161;48.794;9.784;2023-10-13T09:59:11;10.10;;;2.10;;
6255;SDS011;3161;48.794;9.784;2023-10-13T10:01:42;8.70;;;1.95;;
6255;SDS011;3161;48.794;9.784;2023-10-13T10:04:18;8.43;;;1.70;;
6255;SDS011;3161;48.794;9.784;2023-10-13T10:06:59;5.65;;;2.25;;
6255;SDS011;3161;48.794;9.784;2023-10-13T10:15:26;11.93;;;5.25;;
6255;SDS011;3161;48.794;9.784;2023-10-13T10:17:59;7.62;;;1.95;;
6255;SDS011;3161;48.794;9.784;2023-10-13T10:20:33;13.28;;;2.17;;
6255;SDS011;3161;48.794;9.784;2023-10-13T10:23:23;2.87;;;1.85;;
6255;SDS011;3161;48.794;9.784;2023-10-13T10:25:55;9.45;;;1.77;;
6255;SDS011;3161;48.794;9.784;2023-10-13T10:28:40;6.00;;;1.80;;
6255;SDS011;3161;48.794;9.784;2023-10-13T10:31:09;4.28;;;1.77;;
6255;SDS011;3161;48.794;9.784;2023-10-13T10:33:45;4.22;;;1.70;;
6255;SDS011;3161;48.794;9.784;2023-10-13T10:36:15;8.58;;;1.92;;
6255;SDS011;3161;48.794;9.784;2023-10-13T10:38:53;2.95;;;1.60;;
6255;SDS011;3161;48.794;9.784;2023-10-13T10:41:27;6.40;;;2.02;;
6255;SDS011;3161;48.794;9.784;2023-10-13T10:43:57;10.90;;;2.00;;
6255;SDS011;3161;48.794;9.784;2023-10-13T10:46:27;13.58;;;2.30;;
6255;SDS011;3161;48.794;9.784;2023-10-13T10:48:57;7.42;;;1.52;;
6255;SDS011;3161;48.794;9.784;2023-10-13T10:51:28;5.33;;;2.02;;
6255;SDS011;3161;48.794;9.784;2023-10-13T10:53:57;3.87;;;1.98;;
6255;SDS011;3161;48.794;9.784;2023-10-13T10:56:40;4.00;;;1.70;;
6255;SDS011;3161;48.794;9.784;2023-10-13T10:59:07;6.00;;;2.00;;
6255;SDS011;3161;48.794;9.784;2023-10-13T11:01:42;7.40;;;2.17;;
6255;SDS011;3161;48.794;9.784;2023-10-13T11:04:09;6.45;;;2.30;;
6255;SDS011;3161;48.794;9.784;2023-10-13T11:06:47;3.58;;;2.02;;
6255;SDS011;3161;48.794;9.784;2023-10-13T11:09:26;6.15;;;2.52;;
6255;SDS011;3161;48.794;9.784;2023-10-13T11:15:03;6.05;;;2.12;;
6255;SDS011;3161;48.794;9.784;2023-10-13T11:17:42;7.08;;;1.98;;
6255;SDS011;3161;48.794;9.784;2023-10-13T11:20:17;10.23;;;3.02;;
6255;SDS011;3161;48.794;9.784;2023-10-13T11:22:56;3.85;;;1.77;;
6255;SDS011;3161;48.794;9.784;2023-10-13T11:25:24;5.42;;;1.98;;
6255;SDS011;3161;48.794;9.784;2023-10-13T11:27:57;8.20;;;2.35;;
6255;SDS011;3161;48.794;9.784;2023-10-13T11:30:29;3.75;;;1.90;;
6255;SDS011;3161;48.794;9.784;2023-10-13T11:33:02;17.77;;;2.58;;
6255;SDS011;3161;48.794;9.784;2023-10-13T11:35:39;1.95;;;1.75;;
6255;SDS011;3161;48.794;9.784;2023-10-13T11:38:34;9.20;;;1.92;;
6255;SDS011;3161;48.794;9.784;2023-10-13T11:41:15;5.92;;;2.45;;
6255;SDS011;3161;48.794;9.784;2023-10-13T11:43:49;7.12;;;2.20;;
6255;SDS011;3161;48.794;9.784;2023-10-13T11:46:19;6.30;;;2.30;;
6255;SDS011;3161;48.794;9.784;2023-10-13T11:49:05;3.72;;;1.72;;
6255;SDS011;3161;48.794;9.784;2023-10-13T11:51:46;6.70;;;1.67;;
6255;SDS011;3161;48.794;9.784;2023-10-13T11:54:22;12.33;;;2.25;;
6255;SDS011;3161;48.794;9.784;2023-10-13T11:56:49;5.35;;;2.30;;
6255;SDS011;3161;48.794;9.784;2023-10-13T11:59:16;8.13;;;2.17;;
6255;SDS011;3161;48.794;9.784;2023-10-13T12:01:49;8.55;;;2.62;;
6255;SDS011;3161;48.794;9.784;2023-10-13T12:04:33;2.08;;;1.77;;
6255;SDS011;3161;48.794;9.784;2023-10-13T12:07:03;7.17;;;1.50;;
6255;SDS011;3161;48.794;9.784;2023-10-13T12:09:46;5.92;;;2.35;;
6255;SDS011;3161;48.794;9.784;2023-10-13T12:12:20;6.50;;;2.52;;
6255;SDS011;3161;48.794;9.784;2023-10-13T12:14:51;4.00;;;2.00;;
6255;SDS011;3161;48.794;9.784;2023-10-13T12:17:23;5.25;;;2.00;;
6255;SDS011;3161;48.794;9.784;2023-10-13T12:20:01;4.05;;;1.45;;
6255;SDS011;3161;48.794;9.784;2023-10-13T12:22:33;11.63;;;1.98;;
6255;SDS011;3161;48.794;9.784;2023-10-13T12:25:04;5.45;;;1.92;;
6255;SDS011;3161;48.794;9.784;2023-10-13T12:27:34;4.58;;;1.95;;
6255;SDS011;3161;48.794;9.784;2023-10-13T12:30:03;5.45;;;1.87;;
6255;SDS011;3161;48.794;9.784;2023-10-13T12:32:37;7.30;;;1.82;;
6255;SDS011;3161;48.794;9.784;2023-10-13T12:35:06;3.50;;;1.92;;
6255;SDS011;3161;48.794;9.784;2023-10-13T12:37:36;4.40;;;1.90;;
6255;SDS011;3161;48.794;9.784;2023-10-13T12:40:15;7.53;;;2.02;;
6255;SDS011;3161;48.794;9.784;2023-10-13T12:43:02;6.67;;;2.33;;
6255;SDS011;3161;48.794;9.784;2023-10-13T12:45:50;5.03;;;1.85;;
6255;SDS011;3161;48.794;9.784;2023-10-13T12:48:36;12.53;;;2.12;;
6255;SDS011;3161;48.794;9.784;2023-10-13T12:51:24;3.70;;;1.92;;
6255;SDS011;3161;48.794;9.784;2023-10-13T12:53:56;5.37;;;2.02;;
6255;SDS011;3161;48.794;9.784;2023-10-13T12:56:25;12.45;;;1.90;;
6255;SDS011;3161;48.794;9.784;2023-10-13T12:58:54;6.08;;;2.12;;
6255;SDS011;3161;48.794;9.784;2023-10-13T13:01:23;10.00;;;2.70;;
6255;SDS011;3161;48.794;9.784;2023-10-13T13:03:53;4.30;;;2.33;;
6255;SDS011;3161;48.794;9.784;2023-10-13T13:06:22;12.88;;;2.17;;
6255;SDS011;3161;48.794;9.784;2023-10-13T13:08:54;7.40;;;2.00;;
6255;SDS011;3161;48.794;9.784;2023-10-13T13:11:23;2.67;;;1.42;;
6255;SDS011;3161;48.794;9.784;2023-10-13T13:13:51;4.03;;;2.15;;
6255;SDS011;3161;48.794;9.784;2023-10-13T13:16:19;4.42;;;2.05;;
6255;SDS011;3161;48.794;9.784;2023-10-13T13:18:48;2.55;;;1.65;;
6255;SDS011;3161;48.794;9.784;2023-10-13T13:21:16;4.15;;;1.95;;
6255;SDS011;3161;48.794;9.784;2023-10-13T13:23:53;10.15;;;2.10;;
6255;SDS011;3161;48.794;9.784;2023-10-13T13:26:24;5.65;;;2.45;;
6255;SDS011;3161;48.794;9.784;2023-10-13T13:28:51;12.28;;;1.75;;
6255;SDS011;3161;48.794;9.784;2023-10-13T13:31:22;5.70;;;1.87;;
6255;SDS011;3161;48.794;9.784;2023-10-13T13:33:54;6.72;;;2.05;;
6255;SDS011;3161;48.794;9.784;2023-10-13T13:36:22;6.87;;;1.75;;
6255;SDS011;3161;48.794;9.784;2023-10-13T13:38:50;14.95;;;2.02;;
6255;SDS011;3161;48.794;9.784;2023-10-13T13:41:19;6.33;;;2.10;;
6255;SDS011;3161;48.794;9.784;2023-10-13T13:43:48;6.37;;;2.22;;
6255;SDS011;3161;48.794;9.784;2023-10-13T13:46:18;2.98;;;1.65;;
6255;SDS011;3161;48.794;9.784;2023-10-13T13:48:48;9.10;;;1.62;;
6255;SDS011;3161;48.794;9.784;2023-10-13T13:51:17;6.15;;;2.08;;
6255;SDS011;3161;48.794;9.784;2023-10-13T13:53:49;6.83;;;1.98;;
6255;SDS011;3161;48.794;9.784;2023-10-13T13:56:16;6.47;;;1.50;;
6255;SDS011;3161;48.794;9.784;2023-10-13T13:58:45;4.60;;;2.05;;
6255;SDS011;3161;48.794;9.784;2023-10-13T14:01:15;5.85;;;1.75;;
6255;SDS011;3161;48.794;9.784;2023-10-13T14:03:50;4.30;;;1.62;;
6255;SDS011;3161;48.794;9.784;2023-10-13T14:06:21;6.87;;;2.02;;
6255;SDS011;3161;48.794;9.784;2023-10-13T14:08:51;3.95;;;1.98;;
6255;SDS011;3161;48.794;9.784;2023-10-13T14:11:23;5.95;;;2.22;;
6255;SDS011;3161;48.794;9.784;2023-10-13T14:14:09;3.30;;;1.75;;
6255;SDS011;3161;48.794;9.784;2023-10-13T14:16:52;5.85;;;2.15;;
6255;SDS011;3161;48.794;9.784;2023-10-13T14:19:21;7.75;;;2.00;;
6255;SDS011;3161;48.794;9.784;2023-10-13T14:21:58;4.00;;;1.87;;
6255;SDS011;3161;48.794;9.784;2023-10-13T14:24:28;7.40;;;1.95;;
6255;SDS011;3161;48.794;9.784;2023-10-13T14:26:57;2.72;;;1.75;;
6255;SDS011;3161;48.794;9.784;2023-10-13T14:29:27;6.35;;;1.98;;
6255;SDS011;3161;48.794;9.784;2023-10-13T14:31:55;6.67;;;2.40;;
6255;SDS011;3161;48.794;9.784;2023-10-13T14:34:23;6.47;;;2.35;;
6255;SDS011;3161;48.794;9.784;2023-10-13T14:36:52;7.10;;;1.80;;
6255;SDS011;3161;48.794;9.784;2023-10-13T14:39:20;10.50;;;2.35;;
6255;SDS011;3161;48.794;9.784;2023-10-13T14:41:48;5.97;;;1.77;;
6255;SDS011;3161;48.794;9.784;2023-10-13T14:44:15;10.38;;;2.05;;
6255;SDS011;3161;48.794;9.784;2023-10-13T14:46:43;6.37;;;2.08;;
6255;SDS011;3161;48.794;9.784;2023-10-13T14:49:10;13.25;;;2.50;;
6255;SDS011;3161;48.794;9.784;2023-10-13T14:51:39;4.55;;;1.87;;
6255;SDS011;3161;48.794;9.784;2023-10-13T14:54:07;3.90;;;1.90;;
6255;SDS011;3161;48.794;9.784;2023-10-13T14:56:34;5.67;;;2.00;;
6255;SDS011;3161;48.794;9.784;2023-10-13T14:59:02;8.25;;;2.22;;
6255;SDS011;3161;48.794;9.784;2023-10-13T15:01:30;4.75;;;1.82;;
6255;SDS011;3161;48.794;9.784;2023-10-13T15:03:58;6.20;;;2.08;;
6255;SDS011;3161;48.794;9.784;2023-10-13T15:06:26;5.25;;;2.17;;
6255;SDS011;3161;48.794;9.784;2023-10-13T15:08:57;4.70;;;2.20;;
6255;SDS011;3161;48.794;9.784;2023-10-13T15:11:26;5.28;;;1.90;;
6255;SDS011;3161;48.794;9.784;2023-10-13T15:13:54;6.95;;;1.87;;
6255;SDS011;3161;48.794;9.784;2023-10-13T15:16:23;6.03;;;2.25;;
6255;SDS011;3161;48.794;9.784;2023-10-13T15:18:52;2.87;;;1.98;;
6255;SDS011;3161;48.794;9.784;2023-10-13T15:21:21;4.35;;;2.00;;
6255;SDS011;3161;48.794;9.784;2023-10-13T15:23:51;2.92;;;1.95;;
6255;SDS011;3161;48.794;9.784;2023-10-13T15:26:19;8.90;;;2.05;;
6255;SDS011;3161;48.794;9.784;2023-10-13T15:28:49;2.58;;;2.00;;
6255;SDS011;3161;48.794;9.784;2023-10-13T15:31:18;6.85;;;2.17;;
6255;SDS011;3161;48.794;9.784;2023-10-13T15:33:51;8.83;;;2.42;;
6255;SDS011;3161;48.794;9.784;2023-10-13T15:36:23;4.60;;;2.47;;
6255;SDS011;3161;48.794;9.784;2023-10-13T15:38:51;8.75;;;2.55;;
6255;SDS011;3161;48.794;9.784;2023-10-13T15:41:22;8.48;;;2.17;;
6255;SDS011;3161;48.794;9.784;2023-10-13T15:43:52;3.72;;;1.98;;
6255;SDS011;3161;48.794;9.784;2023-10-13T15:46:21;3.83;;;1.82;;
6255;SDS011;3161;48.794;9.784;2023-10-13T15:48:52;4.58;;;2.15;;
6255;SDS011;3161;48.794;9.784;2023-10-13T15:51:20;6.85;;;2.42;;
6255;SDS011;3161;48.794;9.784;2023-10-13T15:53:48;8.78;;;1.95;;
6255;SDS011;3161;48.794;9.784;2023-10-13T15:56:17;5.47;;;2.05;;
6255;SDS011;3161;48.794;9.784;2023-10-13T15:58:47;10.50;;;1.92;;
6255;SDS011;3161;48.794;9.784;2023-10-13T16:01:16;3.85;;;2.08;;
6255;SDS011;3161;48.794;9.784;2023-10-13T16:03:47;5.28;;;2.05;;
6255;SDS011;3161;48.794;9.784;2023-10-13T16:06:20;11.93;;;2.20;;
6255;SDS011;3161;48.794;9.784;2023-10-13T16:08:49;6.53;;;1.87;;
6255;SDS011;3161;48.794;9.784;2023-10-13T16:11:18;5.25;;;1.77;;
6255;SDS011;3161;48.794;9.784;2023-10-13T16:13:50;4.28;;;1.80;;